Time;durP1;ratioP1;P1;durP2;ratioP2;P2;SDS_P1;SDS_P2;PMS_P1;PMS_P2;Temp;Humidity;BMP_temperature;BMP_pressure;BME280_temperature;BME280_humidity;BME280_pressure;Samples;Min_cycle;Max_cycle;Signal;HPM_P1;HPM_P2
2022/12/12 00:00:50;;;;;;;26.93;10.80;;;;;;;-1.64;63.65;100912.88;4979772;28;97303;-48
2022/12/12 00:03:15;;;;;;;24.17;11.23;;;;;;;-1.67;63.42;100911.72;4981320;28;98761;-48
2022/12/12 00:05:41;;;;;;;23.93;11.30;;;;;;;-1.69;63.51;100911.38;4967493;28;100436;-48
2022/12/12 00:08:07;;;;;;;27.07;11.97;;;;;;;-1.70;63.16;100914.44;4980564;28;97808;-48
2022/12/12 00:10:33;;;;;;;25.90;12.97;;;;;;;-1.72;63.34;100908.69;4966387;28;97008;-48
2022/12/12 00:12:59;;;;;;;28.40;12.20;;;;;;;-1.72;63.39;100911.38;4975295;28;98997;-49
2022/12/12 00:15:24;;;;;;;25.47;12.10;;;;;;;-1.73;63.28;100917.97;4981073;28;97159;-48
2022/12/12 00:17:50;;;;;;;27.77;13.13;;;;;;;-1.75;63.47;100917.59;4981793;28;97536;-48
2022/12/12 00:20:15;;;;;;;25.70;12.57;;;;;;;-1.76;63.32;100914.13;4982648;28;96783;-48
2022/12/12 00:22:40;;;;;;;23.80;11.43;;;;;;;-1.78;63.21;100910.31;4980778;28;97448;-48
2022/12/12 00:25:06;;;;;;;23.23;11.80;;;;;;;-1.80;63.47;100910.72;4979310;28;97193;-49
2022/12/12 00:27:32;;;;;;;23.23;10.77;;;;;;;-1.83;63.30;100908.81;4982233;28;96853;-48
2022/12/12 00:29:58;;;;;;;23.87;12.40;;;;;;;-1.86;63.38;100904.25;4984239;28;97193;-48
2022/12/12 00:32:23;;;;;;;26.07;12.67;;;;;;;-1.89;63.20;100906.97;4982133;28;97269;-48
2022/12/12 00:34:48;;;;;;;26.90;11.80;;;;;;;-1.87;63.46;100915.41;4979705;28;96862;-48
2022/12/12 00:37:14;;;;;;;21.33;11.70;;;;;;;-1.87;63.64;100902.69;4982484;28;97164;-48
2022/12/12 00:39:40;;;;;;;27.17;11.30;;;;;;;-1.87;63.54;100913.47;4980892;28;96980;-48
2022/12/12 00:42:05;;;;;;;24.23;11.80;;;;;;;-1.90;63.32;100908.13;4981950;28;97292;-47
2022/12/12 00:44:31;;;;;;;27.80;11.50;;;;;;;-1.94;63.21;100913.56;4984867;28;97436;-48
2022/12/12 00:46:56;;;;;;;26.10;11.23;;;;;;;-1.97;63.49;100911.66;4972302;28;96821;-48
2022/12/12 00:49:21;;;;;;;26.03;12.10;;;;;;;-1.97;63.39;100913.59;4975230;28;97298;-48
2022/12/12 00:51:47;;;;;;;25.57;12.10;;;;;;;-2.02;63.40;100901.31;4984775;28;97310;-48
2022/12/12 00:54:12;;;;;;;33.87;16.67;;;;;;;-2.06;63.04;100905.97;4982395;28;97313;-48
2022/12/12 00:56:39;;;;;;;40.30;18.50;;;;;;;-2.08;63.31;100913.69;4979796;28;97479;-47
2022/12/12 00:59:04;;;;;;;32.30;17.10;;;;;;;-2.07;63.54;100907.13;4977475;28;97741;-47
2022/12/12 01:01:31;;;;;;;31.63;13.87;;;;;;;-2.07;63.24;100915.22;4954256;28;100661;-48
2022/12/12 01:03:58;;;;;;;24.70;12.40;;;;;;;-2.09;63.42;100920.25;4954510;28;97299;-48
2022/12/12 01:06:24;;;;;;;26.30;13.27;;;;;;;-2.11;63.30;100922.56;4958781;28;97215;-48
2022/12/12 01:08:49;;;;;;;29.57;14.80;;;;;;;-2.12;63.20;100929.16;4959271;28;96784;-48
2022/12/12 01:11:15;;;;;;;26.97;13.40;;;;;;;-2.13;63.45;100927.59;4959824;28;97317;-47
2022/12/12 01:13:42;;;;;;;31.57;13.90;;;;;;;-2.13;63.32;100927.59;4960948;28;102168;-48
2022/12/12 01:16:08;;;;;;;30.53;13.93;;;;;;;-2.15;63.08;100929.94;4974217;28;96961;-48
2022/12/12 01:18:34;;;;;;;27.53;13.77;;;;;;;-2.17;63.25;100932.25;4972830;28;97350;-48
2022/12/12 01:21:00;;;;;;;30.40;13.77;;;;;;;-2.19;63.27;100929.19;4972023;28;97493;-48
2022/12/12 01:23:25;;;;;;;32.13;14.80;;;;;;;-2.21;63.22;100934.22;4970127;28;97425;-48
2022/12/12 01:26:02;;;;;;;22.53;11.57;;;;;;;-2.21;63.21;100936.16;4970537;28;97507;-48
2022/12/12 01:28:27;;;;;;;30.93;13.30;;;;;;;-2.23;63.26;100931.16;4969562;28;96781;-48
2022/12/12 01:30:53;;;;;;;27.37;12.87;;;;;;;-2.26;63.11;100937.34;4968427;28;97498;-48
2022/12/12 01:33:18;;;;;;;29.90;13.40;;;;;;;-2.30;63.08;100942.00;4980900;28;98555;-48
2022/12/12 01:35:44;;;;;;;32.07;14.40;;;;;;;-2.32;62.80;100939.69;4978654;28;96920;-48
2022/12/12 01:38:09;;;;;;;29.50;11.57;;;;;;;-2.36;63.05;100941.63;4977862;28;97092;-48
2022/12/12 01:40:35;;;;;;;29.33;13.23;;;;;;;-2.39;63.16;100937.06;4977166;28;97120;-48
2022/12/12 01:43:00;;;;;;;25.90;12.10;;;;;;;-2.40;63.35;100946.28;4981789;28;97330;-48
2022/12/12 01:45:56;;;;;;;25.20;11.63;;;;;;;-2.43;63.01;100943.63;4983963;28;97708;-48
2022/12/12 01:48:27;;;;;;;28.80;12.10;;;;;;;-2.48;63.13;100939.44;4975560;28;97038;-48
2022/12/12 01:50:53;;;;;;;26.27;11.60;;;;;;;-2.49;63.22;100937.88;4977166;28;97496;-48
2022/12/12 01:53:20;;;;;;;27.03;11.43;;;;;;;-2.47;63.04;100953.66;4978342;28;97144;-48
2022/12/12 01:55:48;;;;;;;27.23;11.70;;;;;;;-2.51;63.14;100945.59;4981221;28;97258;-48
2022/12/12 01:58:14;;;;;;;27.47;11.63;;;;;;;-2.51;63.17;100950.25;4981478;28;99951;-48
2022/12/12 02:00:40;;;;;;;25.00;11.00;;;;;;;-2.54;63.23;100948.31;4964178;28;97553;-48
2022/12/12 02:03:06;;;;;;;29.33;11.30;;;;;;;-2.57;63.01;100947.19;4960942;28;97301;-48
2022/12/12 02:05:56;;;;;;;28.00;11.70;;;;;;;-2.59;63.25;100938.75;4961462;28;97162;-48
2022/12/12 02:08:22;;;;;;;23.97;10.27;;;;;;;-2.57;63.28;100946.41;4976703;28;97092;-48
2022/12/12 02:10:48;;;;;;;21.87;9.73;;;;;;;-2.57;63.36;100951.81;4981951;28;97205;-48
2022/12/12 02:13:27;;;;;;;25.53;10.53;;;;;;;-2.58;63.18;100961.06;4981744;28;97456;-48
2022/12/12 02:16:10;;;;;;;27.70;11.70;;;;;;;-2.59;63.38;100948.75;4981082;28;96859;-48
2022/12/12 02:18:51;;;;;;;22.90;10.43;;;;;;;-2.68;63.24;100946.50;4978193;28;97720;-48
2022/12/12 02:21:39;;;;;;;24.97;10.37;;;;;;;-2.71;63.33;100957.28;4982351;28;102080;-49
2022/12/12 02:24:14;;;;;;;29.50;10.77;;;;;;;-2.74;63.44;100953.47;4982625;28;97306;-48
2022/12/12 02:26:55;;;;;;;23.20;10.67;;;;;;;-2.74;63.09;100947.31;4982418;28;97434;-48
2022/12/12 02:30:06;;;;;;;23.97;11.10;;;;;;;-2.75;63.28;100951.16;4978403;28;97691;-48
2022/12/12 02:33:13;;;;;;;30.57;11.33;;;;;;;-2.77;63.15;100950.78;4967922;28;101727;-48
2022/12/12 02:35:53;;;;;;;29.30;11.10;;;;;;;-2.81;63.12;100953.50;4967168;28;102399;-48
2022/12/12 02:38:28;;;;;;;26.00;11.40;;;;;;;-2.83;63.14;100949.66;4981075;28;97694;-48
2022/12/12 02:41:25;;;;;;;25.93;11.43;;;;;;;-2.85;63.00;100941.22;4981388;28;97554;-48
2022/12/12 02:44:17;;;;;;;22.33;11.00;;;;;;;-2.88;63.24;100947.41;4976913;28;103502;-48
2022/12/12 02:47:05;;;;;;;29.10;11.60;;;;;;;-2.87;63.38;100944.31;4981005;28;100132;-48
2022/12/12 02:49:37;;;;;;;28.17;11.70;;;;;;;-2.84;63.46;100946.19;4984303;28;97140;-48
2022/12/12 02:52:04;;;;;;;25.03;11.30;;;;;;;-2.82;63.44;100946.59;4984230;28;96971;-48
2022/12/12 02:54:30;;;;;;;25.40;12.00;;;;;;;-2.82;63.15;100945.81;4984437;28;96826;-48
2022/12/12 02:56:58;;;;;;;25.73;10.60;;;;;;;-2.85;63.18;100951.97;4978497;28;96930;-48
2022/12/12 02:59:40;;;;;;;30.23;11.87;;;;;;;-2.90;63.02;100955.84;4982077;28;97265;-48
2022/12/12 03:02:22;;;;;;;25.83;11.93;;;;;;;-2.97;62.89;100953.19;4978807;28;97228;-48
2022/12/12 03:08:30;;;;;;;27.07;12.23;;;;;;;-2.97;63.20;100955.13;4982959;28;101316;-48
2022/12/12 03:11:00;;;;;;;28.00;11.40;;;;;;;-2.98;63.25;100954.38;4962694;28;96778;-48
2022/12/12 03:13:44;;;;;;;31.50;11.70;;;;;;;-3.00;63.33;100951.31;4983704;28;96846;-48
2022/12/12 03:16:29;;;;;;;35.20;14.43;;;;;;;-3.04;63.08;100955.94;4981912;28;103004;-48
2022/12/12 03:19:07;;;;;;;32.83;13.43;;;;;;;-3.06;62.81;100960.94;4980520;28;97926;-48
2022/12/12 03:21:48;;;;;;;28.80;12.30;;;;;;;-3.10;63.02;100957.47;4973988;28;98531;-49
2022/12/12 03:24:25;;;;;;;26.47;12.70;;;;;;;-3.10;63.08;100955.56;4982039;28;97712;-48
2022/12/12 03:27:37;;;;;;;24.07;11.37;;;;;;;-3.11;63.04;100964.81;4980919;28;97100;-48
2022/12/12 03:30:07;;;;;;;22.93;10.83;;;;;;;-3.16;63.29;100957.13;4945741;28;101513;-48
2022/12/12 03:33:02;;;;;;;31.40;12.20;;;;;;;-3.13;63.24;100959.06;4972945;28;97206;-48
2022/12/12 03:35:45;;;;;;;24.73;10.27;;;;;;;-3.16;63.01;100959.81;4977701;28;97124;-49
2022/12/12 03:38:28;;;;;;;28.50;12.23;;;;;;;-3.16;63.13;100965.22;4983515;28;97487;-48
2022/12/12 03:41:03;;;;;;;26.37;10.53;;;;;;;-3.20;62.94;100959.06;4982973;28;100147;-48
2022/12/12 03:43:45;;;;;;;22.27;10.80;;;;;;;-3.20;63.04;100955.63;4962598;28;97584;-49
2022/12/12 03:46:22;;;;;;;27.00;11.30;;;;;;;-3.22;63.13;100950.63;4971515;28;98594;-48
2022/12/12 03:48:54;;;;;;;23.83;12.10;;;;;;;-3.26;63.13;100955.25;4982230;28;97781;-48
2022/12/12 03:51:32;;;;;;;24.77;11.80;;;;;;;-3.23;62.86;100959.84;4984113;28;97256;-48
2022/12/12 03:54:07;;;;;;;28.57;12.07;;;;;;;-3.28;63.02;100962.19;4970619;28;96841;-49
2022/12/12 03:57:04;;;;;;;27.87;10.93;;;;;;;-3.31;63.10;100957.59;4961899;28;97143;-48
2022/12/12 03:59:42;;;;;;;24.93;10.53;;;;;;;-3.36;63.07;100964.13;4967697;28;102002;-48
2022/12/12 04:02:21;;;;;;;27.30;10.40;;;;;;;-3.41;62.92;100963.78;4962359;28;101736;-48
2022/12/12 04:05:14;;;;;;;25.73;11.30;;;;;;;-3.46;62.89;100973.00;4979978;28;96823;-50
2022/12/12 04:07:50;;;;;;;24.80;10.60;;;;;;;-3.48;63.27;100964.56;4981617;27;97307;-48
2022/12/12 04:13:38;;;;;;;22.30;10.07;;;;;;;-3.48;62.96;100975.31;4976679;28;101918;-49
2022/12/12 04:16:10;;;;;;;21.90;9.57;;;;;;;-3.49;63.06;100976.47;4980406;28;97312;-49
2022/12/12 04:18:50;;;;;;;21.10;10.90;;;;;;;-3.46;62.97;100975.69;4969092;28;96763;-48
2022/12/12 04:24:45;;;;;;;24.77;11.20;;;;;;;-3.51;63.00;100978.00;4962850;28;101435;-48
2022/12/12 04:27:29;;;;;;;26.50;10.67;;;;;;;-3.52;62.82;100974.56;4982083;27;97404;-48
2022/12/12 04:30:05;;;;;;;25.93;11.10;;;;;;;-3.57;62.93;100983.03;4970214;28;97206;-48
2022/12/12 04:32:39;;;;;;;23.10;10.97;;;;;;;-3.64;63.08;100983.03;4978866;28;99317;-48
2022/12/12 04:35:11;;;;;;;21.87;9.90;;;;;;;-3.61;63.01;100982.25;4979521;28;97418;-48
2022/12/12 04:37:54;;;;;;;26.30;11.90;;;;;;;-3.57;63.21;100993.78;4979271;28;97290;-48
2022/12/12 04:40:28;;;;;;;25.93;10.27;;;;;;;-3.55;63.13;100990.69;4961313;28;97137;-49
2022/12/12 04:43:11;;;;;;;24.70;12.00;;;;;;;-3.55;62.93;100985.31;4958378;28;97525;-49
2022/12/12 04:45:44;;;;;;;28.63;10.97;;;;;;;-3.56;63.04;100989.16;4952163;28;97794;-48
2022/12/12 04:48:16;;;;;;;27.27;11.50;;;;;;;-3.63;62.85;100981.88;4981236;28;97867;-48
2022/12/12 04:50:47;;;;;;;25.20;12.20;;;;;;;-3.62;63.03;100980.72;4980405;28;97223;-49
2022/12/12 04:53:15;;;;;;;31.37;12.97;;;;;;;-3.62;63.08;100986.09;4961422;28;98287;-48
2022/12/12 04:55:45;;;;;;;21.00;10.13;;;;;;;-3.65;63.01;100984.19;4971523;28;97248;-49
2022/12/12 04:58:10;;;;;;;23.23;11.03;;;;;;;-3.67;63.01;100981.13;4980072;28;97130;-49
2022/12/12 05:00:52;;;;;;;22.57;11.30;;;;;;;-3.68;62.71;100982.28;4982837;28;97075;-49
2022/12/12 05:03:40;;;;;;;26.70;11.43;;;;;;;-3.78;62.57;100979.59;4978857;28;97487;-49
2022/12/12 05:06:12;;;;;;;24.23;11.27;;;;;;;-3.83;62.51;100986.13;4957530;28;100297;-49
2022/12/12 05:08:41;;;;;;;28.37;12.30;;;;;;;-3.85;62.81;100996.50;4960576;28;97079;-49
2022/12/12 05:11:07;;;;;;;25.97;11.90;;;;;;;-3.84;62.84;100995.34;4974203;28;97397;-49
2022/12/12 05:13:36;;;;;;;29.00;12.80;;;;;;;-3.87;62.57;100996.13;4975592;28;96772;-48
2022/12/12 05:16:09;;;;;;;28.77;12.83;;;;;;;-3.89;62.61;100990.38;4980726;28;97277;-49
2022/12/12 05:18:34;;;;;;;31.50;12.20;;;;;;;-3.89;62.47;100999.19;4980841;28;98911;-49
2022/12/12 05:20:59;;;;;;;32.40;14.27;;;;;;;-3.88;62.42;101002.66;4974128;28;97327;-48
2022/12/12 05:23:25;;;;;;;35.50;15.60;;;;;;;-3.89;62.44;101003.81;4981273;28;97468;-50
2022/12/12 05:25:50;;;;;;;42.30;14.70;;;;;;;-3.93;62.50;101000.34;4971659;28;97330;-48
2022/12/12 05:28:15;;;;;;;41.37;15.00;;;;;;;-3.98;62.53;101000.75;4975406;28;97961;-48
2022/12/12 05:30:41;;;;;;;39.13;16.80;;;;;;;-3.98;62.84;100993.47;4961445;28;97237;-49
2022/12/12 05:33:06;;;;;;;35.77;15.37;;;;;;;-3.93;63.01;101003.78;4973772;28;97068;-48
2022/12/12 05:35:32;;;;;;;32.57;12.67;;;;;;;-3.90;62.83;101004.94;4973969;28;97187;-48
2022/12/12 05:37:58;;;;;;;27.17;13.03;;;;;;;-3.87;62.86;101006.88;4974027;28;97026;-48
2022/12/12 05:40:23;;;;;;;30.10;13.27;;;;;;;-3.83;62.79;101003.03;4971376;28;97714;-48
2022/12/12 05:42:49;;;;;;;25.80;13.13;;;;;;;-3.84;62.92;101006.09;4973381;28;97777;-48
2022/12/12 05:45:14;;;;;;;27.83;12.17;;;;;;;-3.86;62.77;101000.34;4977536;28;97088;-49
2022/12/12 05:47:39;;;;;;;28.50;13.20;;;;;;;-3.84;62.80;101003.41;4978351;28;96846;-48
2022/12/12 05:50:06;;;;;;;20.60;11.53;;;;;;;-3.85;62.80;101009.94;4976020;28;97170;-48
2022/12/12 05:52:31;;;;;;;25.40;11.33;;;;;;;-3.87;62.58;101013.03;4979735;28;99969;-48
2022/12/12 05:54:57;;;;;;;27.67;13.13;;;;;;;-3.87;62.63;101004.19;4976813;28;103383;-48
2022/12/12 05:57:23;;;;;;;29.40;12.90;;;;;;;-3.88;62.95;101005.31;4973606;28;96817;-48
2022/12/12 05:59:48;;;;;;;27.60;12.37;;;;;;;-3.90;62.84;101004.94;4975914;28;97270;-48
2022/12/12 06:02:14;;;;;;;33.23;13.67;;;;;;;-3.88;62.82;101008.00;4978421;28;97714;-48
2022/12/12 06:04:40;;;;;;;26.60;12.30;;;;;;;-3.89;62.98;101009.94;4976570;28;97083;-48
2022/12/12 06:07:06;;;;;;;29.23;12.50;;;;;;;-3.88;62.96;101016.06;4978400;28;97620;-47
2022/12/12 06:09:32;;;;;;;34.20;13.50;;;;;;;-3.86;62.75;101016.47;4975987;28;97578;-48
2022/12/12 06:11:57;;;;;;;27.20;12.13;;;;;;;-3.87;62.81;101010.34;4976371;28;96987;-47
2022/12/12 06:14:24;;;;;;;24.30;12.17;;;;;;;-3.84;62.79;101016.84;4978333;28;97287;-48
2022/12/12 06:16:49;;;;;;;26.67;12.10;;;;;;;-3.82;62.97;101015.31;4981471;28;97014;-48
2022/12/12 06:19:17;;;;;;;24.30;12.20;;;;;;;-3.87;62.63;101013.03;4983027;28;97337;-50
2022/12/12 06:21:42;;;;;;;28.17;13.70;;;;;;;-3.95;62.45;101021.44;4978532;28;97370;-48
2022/12/12 06:24:07;;;;;;;28.27;13.53;;;;;;;-3.98;62.56;101016.88;4976506;28;97281;-49
2022/12/12 06:26:33;;;;;;;27.17;12.57;;;;;;;-4.00;62.51;101024.53;4977464;28;97356;-49
2022/12/12 06:28:58;;;;;;;23.60;11.70;;;;;;;-4.01;62.67;101021.06;4978898;28;98092;-48
2022/12/12 06:31:24;;;;;;;29.53;13.20;;;;;;;-4.01;62.56;101017.63;4980266;28;98071;-51
2022/12/12 06:33:50;;;;;;;26.43;12.37;;;;;;;-4.02;62.66;101016.09;4980464;28;97283;-48
2022/12/12 06:36:22;;;;;;;28.13;13.17;;;;;;;-4.06;62.35;101016.09;4977066;28;96967;-49
2022/12/12 06:38:50;;;;;;;25.37;12.00;;;;;;;-4.13;62.14;101015.31;4977784;28;97303;-48
2022/12/12 06:41:15;;;;;;;25.20;13.27;;;;;;;-4.26;61.91;101022.22;4977507;27;96777;-48
2022/12/12 06:43:41;;;;;;;30.43;13.80;;;;;;;-4.29;62.75;101017.59;4983582;28;97466;-48
2022/12/12 06:46:12;;;;;;;32.23;13.90;;;;;;;-4.25;62.73;101031.78;4984347;28;96698;-49
2022/12/12 06:48:37;;;;;;;29.77;14.10;;;;;;;-4.24;62.60;101041.41;4979511;28;97136;-49
2022/12/12 06:51:12;;;;;;;28.33;12.90;;;;;;;-4.19;62.83;101041.00;4976985;28;97222;-48
2022/12/12 06:53:38;;;;;;;25.47;12.20;;;;;;;-4.16;62.84;101043.72;4977515;28;101592;-48
2022/12/12 06:56:08;;;;;;;29.20;13.40;;;;;;;-4.11;62.82;101047.94;4974316;28;98757;-48
2022/12/12 06:58:34;;;;;;;27.63;13.87;;;;;;;-4.15;62.63;101047.19;4980619;28;97018;-48
2022/12/12 07:01:00;;;;;;;27.03;12.10;;;;;;;-4.17;62.56;101047.53;4980882;28;96885;-48
2022/12/12 07:03:25;;;;;;;27.20;13.03;;;;;;;-4.18;62.49;101056.00;4984679;28;97169;-48
2022/12/12 07:05:51;;;;;;;30.13;12.70;;;;;;;-4.15;62.79;101055.97;4979735;28;97570;-48
2022/12/12 07:08:16;;;;;;;25.87;12.37;;;;;;;-4.13;62.80;101055.63;4978627;28;97043;-49
2022/12/12 07:10:43;;;;;;;25.00;11.57;;;;;;;-4.12;62.75;101051.75;4981921;28;98553;-48
2022/12/12 07:13:08;;;;;;;26.13;11.77;;;;;;;-4.15;62.76;101049.84;4980707;28;97635;-48
2022/12/12 07:15:34;;;;;;;29.67;13.53;;;;;;;-4.16;62.88;101059.81;4982508;28;97107;-48
2022/12/12 07:17:59;;;;;;;30.20;13.00;;;;;;;-4.12;63.05;101059.81;4975961;28;97262;-48
2022/12/12 07:20:24;;;;;;;29.77;12.90;;;;;;;-4.10;62.88;101058.28;4981549;28;98568;-48
2022/12/12 07:22:50;;;;;;;30.57;13.03;;;;;;;-4.07;62.89;101070.97;4972760;28;97976;-48
2022/12/12 07:25:15;;;;;;;27.67;12.70;;;;;;;-4.07;62.77;101070.19;4965933;28;97460;-50
2022/12/12 07:27:41;;;;;;;36.87;13.77;;;;;;;-4.05;62.85;101070.59;4960601;28;97101;-48
2022/12/12 07:30:07;;;;;;;30.37;13.93;;;;;;;-4.04;63.01;101072.13;4961021;28;97717;-47
2022/12/12 07:32:33;;;;;;;32.20;12.83;;;;;;;-4.03;62.65;101079.81;4956907;28;97250;-48
2022/12/12 07:34:58;;;;;;;27.13;12.97;;;;;;;-4.03;62.61;101084.41;4957800;28;96892;-48
2022/12/12 07:37:23;;;;;;;26.40;12.03;;;;;;;-4.08;62.69;101084.75;4972044;28;96938;-49
2022/12/12 07:39:49;;;;;;;25.13;12.40;;;;;;;-4.12;62.79;101097.44;4981156;28;96981;-48
2022/12/12 07:42:14;;;;;;;28.70;14.00;;;;;;;-4.11;62.71;101091.69;4978452;28;97334;-48
2022/12/12 07:44:39;;;;;;;27.63;13.43;;;;;;;-4.08;62.74;101084.75;4972758;28;96881;-48
2022/12/12 07:47:05;;;;;;;30.03;13.57;;;;;;;-4.04;62.68;101088.25;4979083;28;96902;-48
2022/12/12 07:49:30;;;;;;;28.00;13.20;;;;;;;-4.01;62.84;101088.25;4977033;28;96816;-48
2022/12/12 07:51:56;;;;;;;28.10;12.47;;;;;;;-4.00;62.90;101108.56;4966506;28;97684;-48
2022/12/12 07:54:21;;;;;;;27.27;13.10;;;;;;;-3.98;62.53;101092.88;4964814;28;97447;-48
2022/12/12 07:56:47;;;;;;;29.90;13.70;;;;;;;-3.94;62.67;101098.22;4960410;28;97145;-49
2022/12/12 07:59:12;;;;;;;24.03;13.40;;;;;;;-3.92;62.59;101095.94;4953714;28;97147;-48
2022/12/12 08:01:38;;;;;;;26.60;13.00;;;;;;;-3.91;62.44;101092.09;4952886;28;97340;-47
2022/12/12 08:04:03;;;;;;;30.80;14.23;;;;;;;-3.89;62.67;101098.59;4961030;28;103808;-48
2022/12/12 08:06:29;;;;;;;24.50;13.07;;;;;;;-3.82;62.82;101100.53;4980912;28;97221;-48
2022/12/12 08:08:54;;;;;;;30.37;13.70;;;;;;;-3.71;62.91;101095.19;4974770;28;97507;-48
2022/12/12 08:11:22;;;;;;;30.37;14.07;;;;;;;-3.62;63.08;101088.25;4979194;28;97283;-48
2022/12/12 08:13:48;;;;;;;27.43;12.87;;;;;;;-3.53;63.23;101085.94;4955002;28;97226;-48
2022/12/12 08:16:16;;;;;;;30.10;13.70;;;;;;;-3.45;63.00;101089.41;4962933;28;97221;-48
2022/12/12 08:18:42;;;;;;;31.43;13.80;;;;;;;-3.39;62.98;101090.53;4971929;28;97360;-48
2022/12/12 08:21:13;;;;;;;27.13;12.43;;;;;;;-3.33;62.92;101087.06;4975276;28;97208;-48
2022/12/12 08:23:39;;;;;;;28.93;13.77;;;;;;;-3.28;62.99;101085.91;4977085;28;97386;-50
2022/12/12 08:26:12;;;;;;;35.17;17.53;;;;;;;-3.24;62.93;101097.44;4979244;28;97169;-49
2022/12/12 08:28:40;;;;;;;24.47;13.30;;;;;;;-3.22;62.78;101098.59;4974796;28;97577;-48
2022/12/12 08:31:06;;;;;;;29.67;13.97;;;;;;;-3.21;63.00;101102.06;4967679;28;98322;-48
2022/12/12 08:33:31;;;;;;;27.43;13.73;;;;;;;-3.20;62.87;101093.59;4974464;28;97190;-48
2022/12/12 08:35:57;;;;;;;29.23;13.70;;;;;;;-3.14;63.07;101096.63;4978025;28;97402;-48
2022/12/12 08:38:23;;;;;;;30.20;15.10;;;;;;;-3.08;63.12;101097.78;4977288;28;97270;-48
2022/12/12 08:40:48;;;;;;;31.90;15.90;;;;;;;-2.99;63.01;101094.69;4976834;28;97499;-48
2022/12/12 08:43:14;;;;;;;29.67;14.77;;;;;;;-2.92;63.23;101097.34;4978574;28;97254;-48
2022/12/12 08:45:39;;;;;;;31.30;14.53;;;;;;;-2.85;63.17;101098.09;4976685;28;97191;-48
2022/12/12 08:48:06;;;;;;;28.57;13.87;;;;;;;-2.75;63.20;101102.69;4977205;28;97472;-49
2022/12/12 08:50:32;;;;;;;33.30;14.63;;;;;;;-2.67;63.07;101108.81;4974787;28;98498;-49
2022/12/12 08:52:58;;;;;;;26.90;14.20;;;;;;;-2.58;63.26;101106.47;4978819;28;96773;-48
2022/12/12 08:55:23;;;;;;;32.07;14.17;;;;;;;-2.51;63.02;101099.09;4981432;28;97407;-48
2022/12/12 08:57:49;;;;;;;29.17;14.37;;;;;;;-2.45;63.42;101111.03;4977986;28;97269;-49
2022/12/12 09:00:15;;;;;;;31.73;14.40;;;;;;;-2.38;63.34;101105.59;4972805;28;99941;-48
2022/12/12 09:02:40;;;;;;;28.67;13.87;;;;;;;-2.31;63.23;101115.56;4981549;28;96671;-48
2022/12/12 09:05:06;;;;;;;33.13;14.10;;;;;;;-2.25;63.14;101110.53;4976826;28;97152;-48
2022/12/12 09:07:32;;;;;;;33.50;15.50;;;;;;;-2.23;63.25;101111.69;4975280;28;101168;-48
2022/12/12 09:09:57;;;;;;;27.77;14.17;;;;;;;-2.17;63.07;101110.09;4976353;28;97269;-48
2022/12/12 09:12:23;;;;;;;26.53;13.40;;;;;;;-2.08;63.64;101112.38;4976213;28;96927;-48
2022/12/12 09:14:48;;;;;;;27.90;13.47;;;;;;;-1.99;63.37;101105.38;4978763;28;97173;-48
2022/12/12 09:17:13;;;;;;;33.53;14.67;;;;;;;-1.89;63.39;101107.22;4978931;28;97317;-49
2022/12/12 09:19:39;;;;;;;30.97;14.97;;;;;;;-1.79;63.35;101102.94;4977376;28;97070;-48
2022/12/12 09:22:04;;;;;;;28.77;14.43;;;;;;;-1.72;63.40;101108.25;4975477;28;97177;-48
2022/12/12 09:24:30;;;;;;;32.47;15.17;;;;;;;-1.63;63.29;101108.56;4974337;28;97151;-49
2022/12/12 09:26:55;;;;;;;32.80;15.43;;;;;;;-1.52;63.64;101101.94;4977662;28;97456;-48
2022/12/12 09:29:21;;;;;;;30.20;13.90;;;;;;;-1.42;63.73;101107.63;4977674;28;97467;-49
2022/12/12 09:31:46;;;;;;;28.13;14.53;;;;;;;-1.33;63.52;101107.94;4977181;28;97127;-49
2022/12/12 09:34:11;;;;;;;30.77;17.03;;;;;;;-1.21;63.85;101102.03;4977115;28;96763;-49
2022/12/12 09:36:37;;;;;;;34.73;15.60;;;;;;;-1.11;63.58;101101.16;4975126;27;97320;-48
2022/12/12 09:39:02;;;;;;;31.33;15.93;;;;;;;-1.01;63.52;101103.00;4976962;28;97402;-48
2022/12/12 09:41:29;;;;;;;32.33;14.67;;;;;;;-0.94;63.92;101095.56;4967042;28;97352;-48
2022/12/12 09:44:17;;;;;;;33.40;16.03;;;;;;;-0.86;63.53;101094.34;4968401;28;97808;-48
2022/12/12 09:46:56;;;;;;;28.97;13.83;;;;;;;-0.83;63.80;101093.50;4954385;28;100668;-48
2022/12/12 09:49:45;;;;;;;26.87;14.43;;;;;;;-0.79;63.79;101094.22;4959465;28;102900;-48
2022/12/12 09:52:17;;;;;;;30.70;13.57;;;;;;;-0.74;63.76;101098.44;4982508;28;97824;-48
2022/12/12 09:54:43;;;;;;;28.27;14.20;;;;;;;-0.70;63.73;101103.81;4981883;28;97407;-48
2022/12/12 09:57:25;;;;;;;36.80;16.40;;;;;;;-0.66;63.59;101099.13;4973521;28;97708;-48
2022/12/12 10:00:05;;;;;;;27.40;13.63;;;;;;;-0.61;63.96;101104.81;4981285;28;101205;-49
2022/12/12 10:02:30;;;;;;;31.63;13.50;;;;;;;-0.58;64.09;101100.56;4980049;28;97203;-49
2022/12/12 10:05:05;;;;;;;29.57;13.80;;;;;;;-0.55;63.73;101111.34;4982106;28;97576;-48
2022/12/12 10:07:40;;;;;;;33.67;13.73;;;;;;;-0.51;63.83;101108.59;4961657;28;100495;-48
2022/12/12 10:10:11;;;;;;;31.03;13.80;;;;;;;-0.47;64.16;101110.06;4981206;28;101595;-49
2022/12/12 10:12:37;;;;;;;31.90;14.67;;;;;;;-0.43;63.95;101110.00;4965392;28;97387;-49
2022/12/12 10:15:09;;;;;;;33.97;14.57;;;;;;;-0.39;63.96;101110.72;4985185;28;97296;-48
2022/12/12 10:17:41;;;;;;;33.00;14.80;;;;;;;-0.31;64.36;101112.19;4963001;28;102108;-48
2022/12/12 10:20:17;;;;;;;31.50;14.20;;;;;;;-0.25;64.02;101110.56;4958358;28;101358;-48
2022/12/12 10:22:49;;;;;;;34.83;14.57;;;;;;;-0.19;64.25;101119.72;4958930;28;97816;-48
2022/12/12 10:25:34;;;;;;;36.10;13.80;;;;;;;-0.12;64.19;101108.81;4963895;28;101193;-48
2022/12/12 10:28:15;;;;;;;28.00;13.13;;;;;;;-0.05;63.97;101120.31;4976948;28;101842;-48
2022/12/12 10:30:57;;;;;;;30.10;12.80;;;;;;;0.01;64.50;101120.63;4976308;28;97457;-48
2022/12/12 10:33:52;;;;;;;26.07;12.40;;;;;;;0.06;64.46;101116.69;4967886;28;97401;-48
2022/12/12 10:36:32;;;;;;;31.97;13.33;;;;;;;0.12;64.08;101106.94;4921721;28;96907;-48
2022/12/12 10:39:23;;;;;;;31.50;13.80;;;;;;;0.19;64.52;101117.66;4976200;28;101993;-48
2022/12/12 10:42:04;;;;;;;28.57;13.07;;;;;;;0.24;64.30;101111.78;4980593;28;100175;-49
2022/12/12 10:45:12;;;;;;;32.73;13.77;;;;;;;0.31;64.43;101117.06;4980294;28;97328;-48
2022/12/12 10:47:37;;;;;;;29.47;12.47;;;;;;;0.35;64.44;101112.38;4965892;28;96886;-49
2022/12/12 10:50:09;;;;;;;35.03;13.50;;;;;;;0.41;64.41;101110.75;4975726;28;97248;-48
2022/12/12 10:52:34;;;;;;;33.20;13.47;;;;;;;0.45;64.28;101117.63;4976221;28;100308;-48
2022/12/12 10:58:27;;;;;;;29.47;12.50;;;;;;;0.55;64.09;101096.94;4967415;28;97113;-48
2022/12/12 11:01:01;;;;;;;29.77;12.70;;;;;;;0.61;64.23;101098.03;4982079;28;97723;-48
2022/12/12 11:03:40;;;;;;;30.70;12.27;;;;;;;0.67;64.32;101088.25;4965910;28;96774;-49
2022/12/12 11:06:11;;;;;;;30.87;12.20;;;;;;;0.72;64.16;101095.91;4978095;28;97653;-49
2022/12/12 11:08:36;;;;;;;28.30;11.40;;;;;;;0.75;64.42;101095.06;4977041;27;97200;-48
2022/12/12 11:11:04;;;;;;;30.67;13.00;;;;;;;0.80;64.21;101096.53;4982283;28;97507;-48
2022/12/12 11:13:31;;;;;;;33.40;13.07;;;;;;;0.84;64.44;101094.53;4980524;28;97562;-48
2022/12/12 11:16:05;;;;;;;27.93;12.40;;;;;;;0.88;64.35;101095.22;4980834;28;97090;-48
2022/12/12 11:18:31;;;;;;;26.93;12.57;;;;;;;0.91;64.46;101089.75;4980479;28;97824;-48
